sensor_id;sensor_type;location;lat;lon;timestamp;P1;durP1;ratioP1;P2;durP2;ratioP2
17631;SDS011;8934;51.194;17.150;2023-03-22T00:00:17;67.03;;;34.35;;
17631;SDS011;8934;51.194;17.150;2023-03-22T00:03:05;65.85;;;32.72;;
17631;SDS011;8934;51.194;17.150;2023-03-22T00:05:55;68.70;;;32.95;;
17631;SDS011;8934;51.194;17.150;2023-03-22T00:08:43;74.55;;;36.05;;
17631;SDS011;8934;51.194;17.150;2023-03-22T00:11:35;69.40;;;34.85;;
17631;SDS011;8934;51.194;17.150;2023-03-22T00:14:24;73.72;;;35.40;;
17631;SDS011;8934;51.194;17.150;2023-03-22T00:17:11;72.70;;;35.33;;
17631;SDS011;8934;51.194;17.150;2023-03-22T00:19:59;68.22;;;34.05;;
17631;SDS011;8934;51.194;17.150;2023-03-22T00:22:46;72.22;;;36.42;;
17631;SDS011;8934;51.194;17.150;2023-03-22T00:25:34;77.85;;;37.55;;
17631;SDS011;8934;51.194;17.150;2023-03-22T00:28:22;77.13;;;35.33;;
17631;SDS011;8934;51.194;17.150;2023-03-22T00:31:12;74.30;;;33.58;;
17631;SDS011;8934;51.194;17.150;2023-03-22T00:34:00;77.40;;;35.33;;
17631;SDS011;8934;51.194;17.150;2023-03-22T00:36:49;74.18;;;34.10;;
17631;SDS011;8934;51.194;17.150;2023-03-22T00:39:37;72.32;;;35.22;;
17631;SDS011;8934;51.194;17.150;2023-03-22T00:42:25;71.43;;;35.40;;
17631;SDS011;8934;51.194;17.150;2023-03-22T00:45:13;67.00;;;33.88;;
17631;SDS011;8934;51.194;17.150;2023-03-22T00:48:02;68.30;;;32.83;;
17631;SDS011;8934;51.194;17.150;2023-03-22T00:50:50;68.82;;;31.02;;
17631;SDS011;8934;51.194;17.150;2023-03-22T00:53:37;71.28;;;33.60;;
17631;SDS011;8934;51.194;17.150;2023-03-22T00:56:28;66.70;;;32.97;;
17631;SDS011;8934;51.194;17.150;2023-03-22T00:59:26;66.80;;;31.48;;
17631;SDS011;8934;51.194;17.150;2023-03-22T01:02:14;67.03;;;32.47;;
17631;SDS011;8934;51.194;17.150;2023-03-22T01:05:03;63.50;;;32.80;;
17631;SDS011;8934;51.194;17.150;2023-03-22T01:07:51;67.82;;;32.92;;
17631;SDS011;8934;51.194;17.150;2023-03-22T01:10:40;70.95;;;32.47;;
17631;SDS011;8934;51.194;17.150;2023-03-22T01:13:28;70.80;;;32.97;;
17631;SDS011;8934;51.194;17.150;2023-03-22T01:16:16;62.20;;;29.98;;
17631;SDS011;8934;51.194;17.150;2023-03-22T01:19:05;59.17;;;29.80;;
17631;SDS011;8934;51.194;17.150;2023-03-22T01:21:54;61.85;;;29.90;;
17631;SDS011;8934;51.194;17.150;2023-03-22T01:24:42;59.63;;;30.15;;
17631;SDS011;8934;51.194;17.150;2023-03-22T01:27:30;61.47;;;30.20;;
17631;SDS011;8934;51.194;17.150;2023-03-22T01:30:19;59.92;;;29.23;;
17631;SDS011;8934;51.194;17.150;2023-03-22T01:33:06;56.03;;;27.08;;
17631;SDS011;8934;51.194;17.150;2023-03-22T01:35:55;60.97;;;30.15;;
17631;SDS011;8934;51.194;17.150;2023-03-22T01:38:44;58.25;;;28.40;;
17631;SDS011;8934;51.194;17.150;2023-03-22T01:41:32;60.08;;;30.20;;
17631;SDS011;8934;51.194;17.150;2023-03-22T01:47:19;58.22;;;28.73;;
17631;SDS011;8934;51.194;17.150;2023-03-22T01:50:06;54.35;;;27.40;;
17631;SDS011;8934;51.194;17.150;2023-03-22T01:52:55;51.70;;;25.08;;
17631;SDS011;8934;51.194;17.150;2023-03-22T01:55:51;53.30;;;26.90;;
17631;SDS011;8934;51.194;17.150;2023-03-22T01:58:45;54.10;;;27.08;;
17631;SDS011;8934;51.194;17.150;2023-03-22T02:01:39;50.90;;;25.88;;
17631;SDS011;8934;51.194;17.150;2023-03-22T02:04:27;53.80;;;25.58;;
17631;SDS011;8934;51.194;17.150;2023-03-22T02:07:22;54.70;;;25.58;;
17631;SDS011;8934;51.194;17.150;2023-03-22T02:10:14;51.40;;;26.27;;
17631;SDS011;8934;51.194;17.150;2023-03-22T02:13:25;51.38;;;26.02;;
17631;SDS011;8934;51.194;17.150;2023-03-22T02:20:44;50.50;;;24.70;;
17631;SDS011;8934;51.194;17.150;2023-03-22T02:23:58;47.83;;;23.95;;
17631;SDS011;8934;51.194;17.150;2023-03-22T02:27:14;50.35;;;25.00;;
17631;SDS011;8934;51.194;17.150;2023-03-22T02:30:38;48.45;;;24.70;;
17631;SDS011;8934;51.194;17.150;2023-03-22T02:33:49;54.60;;;25.63;;
17631;SDS011;8934;51.194;17.150;2023-03-22T02:37:09;47.83;;;24.25;;
17631;SDS011;8934;51.194;17.150;2023-03-22T02:40:19;50.65;;;25.48;;
17631;SDS011;8934;51.194;17.150;2023-03-22T02:43:19;53.90;;;25.70;;
17631;SDS011;8934;51.194;17.150;2023-03-22T02:46:21;49.13;;;24.73;;
17631;SDS011;8934;51.194;17.150;2023-03-22T02:49:14;58.28;;;26.98;;
17631;SDS011;8934;51.194;17.150;2023-03-22T02:52:09;54.85;;;25.65;;
17631;SDS011;8934;51.194;17.150;2023-03-22T02:55:04;53.25;;;27.17;;
17631;SDS011;8934;51.194;17.150;2023-03-22T02:57:57;48.97;;;24.23;;
17631;SDS011;8934;51.194;17.150;2023-03-22T03:00:49;49.67;;;24.55;;
17631;SDS011;8934;51.194;17.150;2023-03-22T03:03:41;56.45;;;25.60;;
17631;SDS011;8934;51.194;17.150;2023-03-22T03:06:34;49.50;;;24.13;;
17631;SDS011;8934;51.194;17.150;2023-03-22T03:09:24;45.25;;;24.92;;
17631;SDS011;8934;51.194;17.150;2023-03-22T03:12:13;44.80;;;23.50;;
17631;SDS011;8934;51.194;17.150;2023-03-22T03:15:09;48.00;;;24.00;;
17631;SDS011;8934;51.194;17.150;2023-03-22T03:18:07;49.95;;;25.73;;
17631;SDS011;8934;51.194;17.150;2023-03-22T03:21:06;50.00;;;24.52;;
17631;SDS011;8934;51.194;17.150;2023-03-22T03:24:05;44.17;;;22.73;;
17631;SDS011;8934;51.194;17.150;2023-03-22T03:27:04;49.83;;;25.58;;
17631;SDS011;8934;51.194;17.150;2023-03-22T03:29:58;53.90;;;26.25;;
17631;SDS011;8934;51.194;17.150;2023-03-22T03:32:51;41.45;;;22.45;;
17631;SDS011;8934;51.194;17.150;2023-03-22T03:35:43;52.58;;;24.48;;
17631;SDS011;8934;51.194;17.150;2023-03-22T03:38:36;45.50;;;21.83;;
17631;SDS011;8934;51.194;17.150;2023-03-22T03:41:27;39.45;;;19.42;;
17631;SDS011;8934;51.194;17.150;2023-03-22T03:44:17;41.75;;;20.63;;
17631;SDS011;8934;51.194;17.150;2023-03-22T03:47:06;43.50;;;21.58;;
17631;SDS011;8934;51.194;17.150;2023-03-22T03:49:56;43.20;;;20.60;;
17631;SDS011;8934;51.194;17.150;2023-03-22T03:52:43;42.92;;;22.55;;
17631;SDS011;8934;51.194;17.150;2023-03-22T03:55:31;46.53;;;23.40;;
17631;SDS011;8934;51.194;17.150;2023-03-22T03:58:19;47.75;;;24.10;;
17631;SDS011;8934;51.194;17.150;2023-03-22T04:01:07;40.13;;;20.65;;
17631;SDS011;8934;51.194;17.150;2023-03-22T04:04:10;44.78;;;21.88;;
17631;SDS011;8934;51.194;17.150;2023-03-22T04:07:14;42.97;;;22.02;;
17631;SDS011;8934;51.194;17.150;2023-03-22T04:10:02;39.00;;;21.38;;
17631;SDS011;8934;51.194;17.150;2023-03-22T04:12:51;41.42;;;21.48;;
17631;SDS011;8934;51.194;17.150;2023-03-22T04:15:38;37.90;;;19.20;;
17631;SDS011;8934;51.194;17.150;2023-03-22T04:18:30;40.53;;;19.98;;
17631;SDS011;8934;51.194;17.150;2023-03-22T04:21:20;40.67;;;18.75;;
17631;SDS011;8934;51.194;17.150;2023-03-22T04:24:17;38.83;;;20.05;;
17631;SDS011;8934;51.194;17.150;2023-03-22T04:27:08;37.35;;;20.42;;
17631;SDS011;8934;51.194;17.150;2023-03-22T04:30:08;38.55;;;18.95;;
17631;SDS011;8934;51.194;17.150;2023-03-22T04:33:20;37.85;;;19.77;;
17631;SDS011;8934;51.194;17.150;2023-03-22T04:36:26;39.90;;;20.70;;
17631;SDS011;8934;51.194;17.150;2023-03-22T04:39:55;43.03;;;22.10;;
17631;SDS011;8934;51.194;17.150;2023-03-22T04:42:54;38.42;;;22.05;;
17631;SDS011;8934;51.194;17.150;2023-03-22T04:46:12;36.33;;;19.42;;
17631;SDS011;8934;51.194;17.150;2023-03-22T04:49:09;41.58;;;21.65;;
17631;SDS011;8934;51.194;17.150;2023-03-22T04:51:59;46.10;;;22.92;;
17631;SDS011;8934;51.194;17.150;2023-03-22T04:57:45;38.10;;;20.30;;
17631;SDS011;8934;51.194;17.150;2023-03-22T05:00:32;39.03;;;20.90;;
17631;SDS011;8934;51.194;17.150;2023-03-22T05:03:23;42.78;;;20.95;;
17631;SDS011;8934;51.194;17.150;2023-03-22T05:06:12;51.63;;;24.63;;
17631;SDS011;8934;51.194;17.150;2023-03-22T05:09:13;49.50;;;25.27;;
17631;SDS011;8934;51.194;17.150;2023-03-22T05:12:03;55.92;;;28.65;;
17631;SDS011;8934;51.194;17.150;2023-03-22T05:15:11;57.78;;;27.85;;
17631;SDS011;8934;51.194;17.150;2023-03-22T05:17:59;57.70;;;30.38;;
17631;SDS011;8934;51.194;17.150;2023-03-22T05:20:47;61.10;;;29.83;;
17631;SDS011;8934;51.194;17.150;2023-03-22T05:23:40;62.05;;;29.42;;
17631;SDS011;8934;51.194;17.150;2023-03-22T05:26:29;58.10;;;30.33;;
17631;SDS011;8934;51.194;17.150;2023-03-22T05:29:18;52.88;;;28.17;;
17631;SDS011;8934;51.194;17.150;2023-03-22T05:32:21;55.78;;;29.75;;
17631;SDS011;8934;51.194;17.150;2023-03-22T05:35:12;52.83;;;27.23;;
17631;SDS011;8934;51.194;17.150;2023-03-22T05:38:05;57.55;;;29.25;;
17631;SDS011;8934;51.194;17.150;2023-03-22T05:40:57;67.05;;;30.52;;
17631;SDS011;8934;51.194;17.150;2023-03-22T05:43:48;59.08;;;29.83;;
17631;SDS011;8934;51.194;17.150;2023-03-22T05:46:39;63.40;;;31.40;;
17631;SDS011;8934;51.194;17.150;2023-03-22T05:49:45;56.78;;;29.25;;
17631;SDS011;8934;51.194;17.150;2023-03-22T05:52:35;59.97;;;30.40;;
17631;SDS011;8934;51.194;17.150;2023-03-22T05:55:35;64.72;;;33.67;;
17631;SDS011;8934;51.194;17.150;2023-03-22T05:58:23;64.72;;;31.65;;
17631;SDS011;8934;51.194;17.150;2023-03-22T06:01:16;62.78;;;31.30;;
17631;SDS011;8934;51.194;17.150;2023-03-22T06:04:06;67.40;;;31.75;;
17631;SDS011;8934;51.194;17.150;2023-03-22T06:07:15;62.75;;;30.35;;
17631;SDS011;8934;51.194;17.150;2023-03-22T06:10:11;60.10;;;30.60;;
17631;SDS011;8934;51.194;17.150;2023-03-22T06:13:00;62.30;;;29.83;;
17631;SDS011;8934;51.194;17.150;2023-03-22T06:15:50;60.90;;;30.80;;
17631;SDS011;8934;51.194;17.150;2023-03-22T06:18:41;60.75;;;29.48;;
17631;SDS011;8934;51.194;17.150;2023-03-22T06:21:32;62.05;;;30.00;;
17631;SDS011;8934;51.194;17.150;2023-03-22T06:24:19;60.55;;;31.70;;
17631;SDS011;8934;51.194;17.150;2023-03-22T06:27:07;57.85;;;28.77;;
17631;SDS011;8934;51.194;17.150;2023-03-22T06:29:57;66.75;;;31.08;;
17631;SDS011;8934;51.194;17.150;2023-03-22T06:32:45;58.35;;;28.95;;
17631;SDS011;8934;51.194;17.150;2023-03-22T06:35:33;69.45;;;30.60;;
17631;SDS011;8934;51.194;17.150;2023-03-22T06:38:25;67.30;;;31.27;;
17631;SDS011;8934;51.194;17.150;2023-03-22T06:41:12;59.42;;;30.58;;
17631;SDS011;8934;51.194;17.150;2023-03-22T06:44:00;64.13;;;31.27;;
17631;SDS011;8934;51.194;17.150;2023-03-22T06:47:07;65.77;;;31.63;;
17631;SDS011;8934;51.194;17.150;2023-03-22T06:50:11;58.88;;;29.90;;
17631;SDS011;8934;51.194;17.150;2023-03-22T06:53:25;61.67;;;29.77;;
17631;SDS011;8934;51.194;17.150;2023-03-22T06:56:14;56.33;;;29.15;;
17631;SDS011;8934;51.194;17.150;2023-03-22T06:59:07;49.10;;;27.15;;
17631;SDS011;8934;51.194;17.150;2023-03-22T07:01:54;52.70;;;27.27;;
17631;SDS011;8934;51.194;17.150;2023-03-22T07:04:43;51.63;;;27.48;;
17631;SDS011;8934;51.194;17.150;2023-03-22T07:07:32;53.47;;;26.25;;
17631;SDS011;8934;51.194;17.150;2023-03-22T07:10:21;50.13;;;28.88;;
17631;SDS011;8934;51.194;17.150;2023-03-22T07:13:09;54.15;;;27.77;;
17631;SDS011;8934;51.194;17.150;2023-03-22T07:15:58;47.53;;;27.25;;
17631;SDS011;8934;51.194;17.150;2023-03-22T07:19:00;44.97;;;25.50;;
17631;SDS011;8934;51.194;17.150;2023-03-22T07:21:48;46.28;;;26.00;;
17631;SDS011;8934;51.194;17.150;2023-03-22T07:24:35;40.65;;;24.33;;
17631;SDS011;8934;51.194;17.150;2023-03-22T07:27:40;41.92;;;23.77;;
17631;SDS011;8934;51.194;17.150;2023-03-22T07:30:28;45.70;;;26.85;;
17631;SDS011;8934;51.194;17.150;2023-03-22T07:33:16;43.20;;;25.13;;
17631;SDS011;8934;51.194;17.150;2023-03-22T07:36:04;40.88;;;23.98;;
17631;SDS011;8934;51.194;17.150;2023-03-22T07:38:52;41.58;;;24.05;;
17631;SDS011;8934;51.194;17.150;2023-03-22T07:41:46;44.08;;;25.05;;
17631;SDS011;8934;51.194;17.150;2023-03-22T07:44:55;38.78;;;23.83;;
17631;SDS011;8934;51.194;17.150;2023-03-22T07:47:43;41.90;;;24.40;;
17631;SDS011;8934;51.194;17.150;2023-03-22T07:50:55;40.42;;;24.33;;
17631;SDS011;8934;51.194;17.150;2023-03-22T07:53:44;45.22;;;26.10;;
17631;SDS011;8934;51.194;17.150;2023-03-22T07:56:32;46.00;;;25.65;;
17631;SDS011;8934;51.194;17.150;2023-03-22T07:59:20;42.10;;;25.80;;
17631;SDS011;8934;51.194;17.150;2023-03-22T08:02:10;41.55;;;25.08;;
17631;SDS011;8934;51.194;17.150;2023-03-22T08:05:07;43.60;;;26.67;;
17631;SDS011;8934;51.194;17.150;2023-03-22T08:07:58;44.13;;;25.52;;
17631;SDS011;8934;51.194;17.150;2023-03-22T08:10:49;38.92;;;24.08;;
17631;SDS011;8934;51.194;17.150;2023-03-22T08:13:37;45.83;;;27.02;;
17631;SDS011;8934;51.194;17.150;2023-03-22T08:16:27;40.63;;;24.50;;
17631;SDS011;8934;51.194;17.150;2023-03-22T08:19:18;35.95;;;22.38;;
17631;SDS011;8934;51.194;17.150;2023-03-22T08:22:07;37.42;;;23.23;;
17631;SDS011;8934;51.194;17.150;2023-03-22T08:25:26;35.35;;;22.50;;
17631;SDS011;8934;51.194;17.150;2023-03-22T08:28:24;34.00;;;22.00;;
17631;SDS011;8934;51.194;17.150;2023-03-22T08:31:12;35.85;;;22.42;;
17631;SDS011;8934;51.194;17.150;2023-03-22T08:34:02;38.08;;;22.85;;
17631;SDS011;8934;51.194;17.150;2023-03-22T08:36:51;36.00;;;22.15;;
17631;SDS011;8934;51.194;17.150;2023-03-22T08:39:41;33.30;;;21.90;;
17631;SDS011;8934;51.194;17.150;2023-03-22T08:42:51;29.02;;;19.95;;
17631;SDS011;8934;51.194;17.150;2023-03-22T08:45:39;29.77;;;19.83;;
17631;SDS011;8934;51.194;17.150;2023-03-22T08:48:32;33.08;;;20.10;;
17631;SDS011;8934;51.194;17.150;2023-03-22T08:51:28;30.45;;;20.30;;
17631;SDS011;8934;51.194;17.150;2023-03-22T08:54:38;31.95;;;19.85;;
17631;SDS011;8934;51.194;17.150;2023-03-22T08:57:26;30.00;;;19.10;;
17631;SDS011;8934;51.194;17.150;2023-03-22T09:00:32;29.25;;;18.42;;
17631;SDS011;8934;51.194;17.150;2023-03-22T09:03:48;33.70;;;19.77;;
17631;SDS011;8934;51.194;17.150;2023-03-22T09:06:36;29.15;;;19.30;;
17631;SDS011;8934;51.194;17.150;2023-03-22T09:09:28;28.38;;;19.15;;
17631;SDS011;8934;51.194;17.150;2023-03-22T09:12:17;30.02;;;19.40;;
17631;SDS011;8934;51.194;17.150;2023-03-22T09:15:06;32.42;;;21.05;;
17631;SDS011;8934;51.194;17.150;2023-03-22T09:17:57;31.48;;;20.98;;
17631;SDS011;8934;51.194;17.150;2023-03-22T09:20:45;28.45;;;19.92;;
17631;SDS011;8934;51.194;17.150;2023-03-22T09:23:37;31.17;;;19.80;;
17631;SDS011;8934;51.194;17.150;2023-03-22T09:26:26;27.48;;;18.10;;
17631;SDS011;8934;51.194;17.150;2023-03-22T09:29:16;24.98;;;17.50;;
17631;SDS011;8934;51.194;17.150;2023-03-22T09:32:04;26.90;;;18.15;;
17631;SDS011;8934;51.194;17.150;2023-03-22T09:34:54;23.90;;;16.55;;
17631;SDS011;8934;51.194;17.150;2023-03-22T09:37:47;27.55;;;18.75;;
17631;SDS011;8934;51.194;17.150;2023-03-22T09:40:42;23.35;;;17.70;;
17631;SDS011;8934;51.194;17.150;2023-03-22T09:43:34;25.02;;;16.92;;
17631;SDS011;8934;51.194;17.150;2023-03-22T09:46:31;23.90;;;16.63;;
17631;SDS011;8934;51.194;17.150;2023-03-22T09:49:24;21.58;;;15.82;;
17631;SDS011;8934;51.194;17.150;2023-03-22T09:52:15;25.10;;;16.00;;
17631;SDS011;8934;51.194;17.150;2023-03-22T09:55:05;22.40;;;15.95;;
17631;SDS011;8934;51.194;17.150;2023-03-22T09:58:01;23.13;;;17.67;;
17631;SDS011;8934;51.194;17.150;2023-03-22T10:00:57;19.00;;;14.90;;
17631;SDS011;8934;51.194;17.150;2023-03-22T10:03:57;24.13;;;16.90;;
17631;SDS011;8934;51.194;17.150;2023-03-22T10:07:03;20.42;;;15.20;;
17631;SDS011;8934;51.194;17.150;2023-03-22T10:09:59;19.05;;;13.68;;
17631;SDS011;8934;51.194;17.150;2023-03-22T10:12:53;19.52;;;15.50;;
17631;SDS011;8934;51.194;17.150;2023-03-22T10:15:45;20.17;;;13.57;;
17631;SDS011;8934;51.194;17.150;2023-03-22T10:18:35;17.55;;;13.63;;
17631;SDS011;8934;51.194;17.150;2023-03-22T10:21:29;18.27;;;13.93;;
17631;SDS011;8934;51.194;17.150;2023-03-22T10:24:21;17.83;;;13.38;;
17631;SDS011;8934;51.194;17.150;2023-03-22T10:27:13;17.35;;;12.70;;
17631;SDS011;8934;51.194;17.150;2023-03-22T10:30:05;11.90;;;10.05;;
17631;SDS011;8934;51.194;17.150;2023-03-22T10:32:56;11.40;;;8.65;;
17631;SDS011;8934;51.194;17.150;2023-03-22T10:35:47;12.85;;;7.85;;
17631;SDS011;8934;51.194;17.150;2023-03-22T10:38:39;14.25;;;8.73;;
17631;SDS011;8934;51.194;17.150;2023-03-22T10:41:32;10.98;;;7.78;;
17631;SDS011;8934;51.194;17.150;2023-03-22T10:44:20;11.82;;;7.78;;
17631;SDS011;8934;51.194;17.150;2023-03-22T10:47:11;11.50;;;8.27;;
17631;SDS011;8934;51.194;17.150;2023-03-22T10:50:02;12.15;;;8.88;;
17631;SDS011;8934;51.194;17.150;2023-03-22T10:52:58;11.07;;;8.25;;
17631;SDS011;8934;51.194;17.150;2023-03-22T10:55:51;13.95;;;9.68;;
17631;SDS011;8934;51.194;17.150;2023-03-22T10:58:39;11.32;;;8.88;;
17631;SDS011;8934;51.194;17.150;2023-03-22T11:01:28;12.77;;;8.50;;
17631;SDS011;8934;51.194;17.150;2023-03-22T11:04:17;14.63;;;9.88;;
17631;SDS011;8934;51.194;17.150;2023-03-22T11:07:05;14.38;;;10.13;;
17631;SDS011;8934;51.194;17.150;2023-03-22T11:10:10;13.40;;;9.80;;
17631;SDS011;8934;51.194;17.150;2023-03-22T11:13:12;13.60;;;10.35;;
17631;SDS011;8934;51.194;17.150;2023-03-22T11:16:06;12.50;;;8.90;;
17631;SDS011;8934;51.194;17.150;2023-03-22T11:18:54;13.80;;;11.02;;
17631;SDS011;8934;51.194;17.150;2023-03-22T11:21:43;13.25;;;9.20;;
17631;SDS011;8934;51.194;17.150;2023-03-22T11:24:32;13.43;;;10.10;;
17631;SDS011;8934;51.194;17.150;2023-03-22T11:27:21;16.30;;;10.95;;
17631;SDS011;8934;51.194;17.150;2023-03-22T11:30:17;13.15;;;8.45;;
17631;SDS011;8934;51.194;17.150;2023-03-22T11:33:14;11.30;;;8.48;;
17631;SDS011;8934;51.194;17.150;2023-03-22T11:36:13;12.73;;;9.40;;
17631;SDS011;8934;51.194;17.150;2023-03-22T11:39:05;10.77;;;8.63;;
17631;SDS011;8934;51.194;17.150;2023-03-22T11:41:55;12.32;;;8.98;;
17631;SDS011;8934;51.194;17.150;2023-03-22T11:44:46;12.20;;;9.25;;
17631;SDS011;8934;51.194;17.150;2023-03-22T11:47:36;11.45;;;8.50;;
17631;SDS011;8934;51.194;17.150;2023-03-22T11:50:26;12.23;;;9.88;;
17631;SDS011;8934;51.194;17.150;2023-03-22T11:53:16;12.63;;;10.60;;
17631;SDS011;8934;51.194;17.150;2023-03-22T11:56:08;12.23;;;9.27;;
17631;SDS011;8934;51.194;17.150;2023-03-22T11:58:58;12.27;;;9.40;;
17631;SDS011;8934;51.194;17.150;2023-03-22T12:01:51;13.43;;;9.13;;
17631;SDS011;8934;51.194;17.150;2023-03-22T12:04:46;11.98;;;9.82;;
17631;SDS011;8934;51.194;17.150;2023-03-22T12:07:36;10.43;;;8.63;;
17631;SDS011;8934;51.194;17.150;2023-03-22T12:10:27;12.32;;;8.73;;
17631;SDS011;8934;51.194;17.150;2023-03-22T12:13:18;13.00;;;9.57;;
17631;SDS011;8934;51.194;17.150;2023-03-22T12:16:10;13.20;;;9.77;;
17631;SDS011;8934;51.194;17.150;2023-03-22T12:19:03;11.15;;;7.90;;
17631;SDS011;8934;51.194;17.150;2023-03-22T12:21:56;12.55;;;9.15;;
17631;SDS011;8934;51.194;17.150;2023-03-22T12:24:45;12.30;;;9.43;;
17631;SDS011;8934;51.194;17.150;2023-03-22T12:27:34;14.82;;;10.98;;
17631;SDS011;8934;51.194;17.150;2023-03-22T12:30:25;13.52;;;10.48;;
17631;SDS011;8934;51.194;17.150;2023-03-22T12:33:16;15.63;;;10.20;;
17631;SDS011;8934;51.194;17.150;2023-03-22T12:36:09;13.65;;;10.32;;
17631;SDS011;8934;51.194;17.150;2023-03-22T12:39:02;12.23;;;10.20;;
17631;SDS011;8934;51.194;17.150;2023-03-22T12:41:52;14.40;;;10.95;;
17631;SDS011;8934;51.194;17.150;2023-03-22T12:44:46;13.75;;;10.15;;
17631;SDS011;8934;51.194;17.150;2023-03-22T12:47:50;12.38;;;9.27;;
17631;SDS011;8934;51.194;17.150;2023-03-22T12:50:42;12.20;;;9.38;;
17631;SDS011;8934;51.194;17.150;2023-03-22T12:53:34;12.40;;;9.32;;
17631;SDS011;8934;51.194;17.150;2023-03-22T12:56:29;10.88;;;8.82;;
17631;SDS011;8934;51.194;17.150;2023-03-22T12:59:23;12.68;;;9.88;;
17631;SDS011;8934;51.194;17.150;2023-03-22T13:02:15;13.20;;;9.35;;
17631;SDS011;8934;51.194;17.150;2023-03-22T13:05:09;11.93;;;8.52;;
17631;SDS011;8934;51.194;17.150;2023-03-22T13:07:57;11.73;;;9.05;;
17631;SDS011;8934;51.194;17.150;2023-03-22T13:10:57;9.73;;;7.50;;
17631;SDS011;8934;51.194;17.150;2023-03-22T13:13:50;11.68;;;8.32;;
17631;SDS011;8934;51.194;17.150;2023-03-22T13:16:43;10.40;;;8.63;;
17631;SDS011;8934;51.194;17.150;2023-03-22T13:19:35;9.68;;;7.00;;
17631;SDS011;8934;51.194;17.150;2023-03-22T13:22:25;10.07;;;6.90;;
17631;SDS011;8934;51.194;17.150;2023-03-22T13:25:36;12.02;;;7.55;;
17631;SDS011;8934;51.194;17.150;2023-03-22T13:28:26;10.35;;;7.72;;
17631;SDS011;8934;51.194;17.150;2023-03-22T13:31:28;12.55;;;9.27;;
17631;SDS011;8934;51.194;17.150;2023-03-22T13:34:29;11.73;;;8.60;;
17631;SDS011;8934;51.194;17.150;2023-03-22T13:37:27;13.85;;;7.55;;
17631;SDS011;8934;51.194;17.150;2023-03-22T13:40:25;8.48;;;6.57;;
17631;SDS011;8934;51.194;17.150;2023-03-22T13:43:23;10.43;;;8.00;;
17631;SDS011;8934;51.194;17.150;2023-03-22T13:46:28;7.30;;;6.18;;
17631;SDS011;8934;51.194;17.150;2023-03-22T13:49:41;9.20;;;6.53;;
17631;SDS011;8934;51.194;17.150;2023-03-22T13:52:36;8.68;;;6.65;;
17631;SDS011;8934;51.194;17.150;2023-03-22T13:55:36;8.93;;;6.78;;
17631;SDS011;8934;51.194;17.150;2023-03-22T13:58:33;9.02;;;6.60;;
17631;SDS011;8934;51.194;17.150;2023-03-22T14:01:25;7.05;;;5.05;;
17631;SDS011;8934;51.194;17.150;2023-03-22T14:04:21;7.10;;;5.75;;
17631;SDS011;8934;51.194;17.150;2023-03-22T14:07:15;7.53;;;5.78;;
17631;SDS011;8934;51.194;17.150;2023-03-22T14:10:11;6.55;;;5.45;;
17631;SDS011;8934;51.194;17.150;2023-03-22T14:13:03;6.60;;;5.43;;
17631;SDS011;8934;51.194;17.150;2023-03-22T14:16:01;8.23;;;5.47;;
17631;SDS011;8934;51.194;17.150;2023-03-22T14:18:55;6.55;;;5.05;;
17631;SDS011;8934;51.194;17.150;2023-03-22T14:21:46;10.07;;;5.88;;
17631;SDS011;8934;51.194;17.150;2023-03-22T14:24:35;7.22;;;5.32;;
17631;SDS011;8934;51.194;17.150;2023-03-22T14:27:22;6.90;;;5.80;;
17631;SDS011;8934;51.194;17.150;2023-03-22T14:30:18;8.30;;;6.03;;
17631;SDS011;8934;51.194;17.150;2023-03-22T14:33:11;6.90;;;5.32;;
17631;SDS011;8934;51.194;17.150;2023-03-22T14:36:05;8.65;;;5.72;;
17631;SDS011;8934;51.194;17.150;2023-03-22T14:38:55;7.28;;;5.30;;
17631;SDS011;8934;51.194;17.150;2023-03-22T14:41:58;8.32;;;6.38;;
17631;SDS011;8934;51.194;17.150;2023-03-22T14:44:47;8.48;;;5.53;;
17631;SDS011;8934;51.194;17.150;2023-03-22T14:47:39;7.57;;;5.18;;
17631;SDS011;8934;51.194;17.150;2023-03-22T14:50:27;7.10;;;5.53;;
17631;SDS011;8934;51.194;17.150;2023-03-22T14:53:15;6.70;;;5.32;;
17631;SDS011;8934;51.194;17.150;2023-03-22T14:56:04;8.10;;;5.40;;
17631;SDS011;8934;51.194;17.150;2023-03-22T14:58:54;8.48;;;5.78;;
17631;SDS011;8934;51.194;17.150;2023-03-22T15:01:46;8.00;;;5.45;;
17631;SDS011;8934;51.194;17.150;2023-03-22T15:04:37;6.55;;;5.78;;
17631;SDS011;8934;51.194;17.150;2023-03-22T15:07:25;7.85;;;5.35;;
17631;SDS011;8934;51.194;17.150;2023-03-22T15:10:14;6.90;;;5.18;;
17631;SDS011;8934;51.194;17.150;2023-03-22T15:13:02;7.03;;;5.28;;
17631;SDS011;8934;51.194;17.150;2023-03-22T15:15:50;5.63;;;5.00;;
17631;SDS011;8934;51.194;17.150;2023-03-22T15:18:39;7.13;;;4.95;;
17631;SDS011;8934;51.194;17.150;2023-03-22T15:21:26;7.90;;;4.82;;
17631;SDS011;8934;51.194;17.150;2023-03-22T15:24:19;7.97;;;5.03;;
17631;SDS011;8934;51.194;17.150;2023-03-22T15:27:11;7.60;;;5.17;;
17631;SDS011;8934;51.194;17.150;2023-03-22T15:29:58;6.75;;;4.80;;
17631;SDS011;8934;51.194;17.150;2023-03-22T15:32:45;4.00;;;3.17;;
17631;SDS011;8934;51.194;17.150;2023-03-22T15:35:32;7.10;;;3.35;;
17631;SDS011;8934;51.194;17.150;2023-03-22T15:38:22;4.80;;;3.42;;
17631;SDS011;8934;51.194;17.150;2023-03-22T15:41:20;5.40;;;3.03;;
17631;SDS011;8934;51.194;17.150;2023-03-22T15:44:18;4.18;;;2.83;;
17631;SDS011;8934;51.194;17.150;2023-03-22T15:47:13;3.97;;;2.92;;
17631;SDS011;8934;51.194;17.150;2023-03-22T15:50:03;5.22;;;3.67;;
17631;SDS011;8934;51.194;17.150;2023-03-22T15:52:53;5.50;;;3.65;;
17631;SDS011;8934;51.194;17.150;2023-03-22T15:55:42;6.00;;;3.20;;
17631;SDS011;8934;51.194;17.150;2023-03-22T15:58:29;4.72;;;3.10;;
17631;SDS011;8934;51.194;17.150;2023-03-22T16:01:18;4.03;;;3.03;;
17631;SDS011;8934;51.194;17.150;2023-03-22T16:04:09;3.88;;;2.53;;
17631;SDS011;8934;51.194;17.150;2023-03-22T16:07:02;4.22;;;2.88;;
17631;SDS011;8934;51.194;17.150;2023-03-22T16:09:49;4.45;;;2.60;;
17631;SDS011;8934;51.194;17.150;2023-03-22T16:12:36;5.43;;;2.90;;
17631;SDS011;8934;51.194;17.150;2023-03-22T16:15:23;4.90;;;2.80;;
17631;SDS011;8934;51.194;17.150;2023-03-22T16:18:14;3.45;;;2.67;;
17631;SDS011;8934;51.194;17.150;2023-03-22T16:21:01;3.60;;;2.78;;
17631;SDS011;8934;51.194;17.150;2023-03-22T16:23:48;6.28;;;2.92;;
17631;SDS011;8934;51.194;17.150;2023-03-22T16:26:34;3.92;;;2.50;;
17631;SDS011;8934;51.194;17.150;2023-03-22T16:29:20;3.60;;;2.65;;
17631;SDS011;8934;51.194;17.150;2023-03-22T16:32:11;4.18;;;2.63;;
17631;SDS011;8934;51.194;17.150;2023-03-22T16:35:01;6.55;;;3.33;;
17631;SDS011;8934;51.194;17.150;2023-03-22T16:37:47;7.63;;;3.20;;
17631;SDS011;8934;51.194;17.150;2023-03-22T16:40:34;5.45;;;3.42;;
17631;SDS011;8934;51.194;17.150;2023-03-22T16:43:21;5.25;;;2.75;;
17631;SDS011;8934;51.194;17.150;2023-03-22T16:46:08;4.20;;;2.80;;
17631;SDS011;8934;51.194;17.150;2023-03-22T16:48:56;3.60;;;2.80;;
17631;SDS011;8934;51.194;17.150;2023-03-22T16:51:44;2.92;;;2.33;;
17631;SDS011;8934;51.194;17.150;2023-03-22T16:54:32;3.25;;;2.55;;
17631;SDS011;8934;51.194;17.150;2023-03-22T16:57:20;5.38;;;2.53;;
17631;SDS011;8934;51.194;17.150;2023-03-22T17:00:09;4.07;;;2.45;;
17631;SDS011;8934;51.194;17.150;2023-03-22T17:02:57;4.88;;;2.53;;
17631;SDS011;8934;51.194;17.150;2023-03-22T17:05:45;4.47;;;2.55;;
17631;SDS011;8934;51.194;17.150;2023-03-22T17:08:33;2.72;;;2.30;;